createdAt,value
2023-05-08T04:15:25.816Z,99.21
2023-05-08T04:16:25.837Z,99.21
2023-05-08T04:17:25.784Z,99.41
2023-05-08T04:18:25.766Z,99.62
2023-05-08T04:19:25.785Z,99.52
2023-05-08T04:20:25.741Z,99.52
2023-05-08T04:21:25.747Z,99.72
2023-05-08T04:22:25.703Z,99.99
2023-05-08T04:23:25.717Z,99.99
2023-05-08T04:24:25.709Z,99.99
2023-05-08T04:25:25.678Z,99.99
2023-05-08T04:26:25.656Z,99.99
2023-05-08T04:27:25.645Z,99.99
2023-05-08T04:28:25.643Z,99.93
2023-05-08T04:29:25.624Z,99.82
2023-05-08T04:31:15.742Z,99.62
2023-05-08T04:32:15.644Z,99.93
2023-05-08T04:33:15.697Z,99.99
2023-05-08T04:34:15.546Z,99.99
2023-05-08T04:35:15.641Z,99.99
2023-05-08T04:36:15.514Z,99.99
2023-05-08T04:37:15.533Z,99.99
2023-05-08T04:38:15.522Z,99.99
2023-05-08T04:39:15.481Z,99.99
2023-05-08T04:40:15.486Z,99.99
2023-05-08T04:41:15.549Z,99.99
2023-05-08T04:42:15.455Z,99.99
2023-05-08T04:43:15.484Z,99.99
2023-05-08T04:44:15.407Z,99.99
2023-05-08T04:45:15.462Z,99.99
2023-05-08T04:46:15.405Z,99.99
2023-05-08T04:47:15.417Z,99.99
2023-05-08T04:48:15.359Z,99.99
2023-05-08T04:49:15.344Z,99.99
2023-05-08T04:50:15.338Z,99.99
2023-05-08T04:51:15.337Z,99.99
2023-05-08T04:52:15.316Z,99.99
2023-05-08T04:53:15.292Z,99.99
2023-05-08T04:54:15.273Z,99.99
2023-05-08T04:55:15.343Z,99.99
2023-05-08T04:56:15.263Z,99.99
2023-05-08T04:57:15.254Z,99.99
2023-05-08T04:58:15.241Z,99.99
2023-05-08T04:59:16.162Z,99.99
2023-05-08T05:00:15.198Z,99.99
2023-05-08T05:01:15.252Z,99.99
2023-05-08T05:02:15.162Z,99.99
2023-05-08T05:03:15.238Z,99.99
2023-05-08T05:04:15.193Z,99.99
2023-05-08T05:05:15.259Z,99.99
2023-05-08T05:06:15.123Z,99.99
2023-05-08T05:07:15.159Z,99.99
2023-05-08T05:08:15.072Z,99.68
2023-05-08T05:09:15.079Z,99.43
2023-05-08T05:10:15.070Z,99.02
2023-05-08T05:11:15.063Z,98.98
2023-05-08T05:12:15.024Z,98.77
2023-05-08T05:13:15.177Z,98.36
2023-05-08T05:14:15.015Z,97.91
2023-05-08T05:15:15.151Z,96.69
2023-05-08T05:16:15.005Z,96.38
2023-05-08T05:17:14.966Z,96.03
2023-05-08T05:18:14.951Z,95.93
2023-05-08T05:19:14.937Z,94.24
2023-05-08T05:20:14.953Z,93.93
2023-05-08T05:21:14.932Z,94.24
2023-05-08T05:22:14.892Z,94.04
2023-05-08T05:23:14.896Z,93.84
2023-05-08T05:24:14.878Z,93.77
2023-05-08T05:25:15.134Z,93.52
2023-05-08T05:26:14.838Z,93.84
2023-05-08T05:27:14.839Z,93.73
2023-05-08T05:28:14.829Z,93.93
2023-05-08T05:29:14.827Z,93.32
2023-05-08T05:30:15.035Z,93.32
2023-05-08T05:31:14.789Z,93.12
2023-05-08T05:32:14.767Z,92.41
2023-05-08T05:33:14.764Z,92.50
2023-05-08T05:34:14.752Z,93.12
2023-05-08T05:35:14.866Z,93.48
2023-05-08T05:36:14.719Z,93.79
2023-05-08T05:37:14.710Z,93.07
2023-05-08T05:38:14.694Z,92.57
2023-05-08T05:39:14.681Z,92.77
2023-05-08T05:40:14.663Z,92.46
2023-05-08T05:41:14.637Z,92.52
2023-05-08T05:42:14.631Z,92.93
2023-05-08T05:43:14.631Z,92.52
2023-05-08T05:44:14.631Z,92.32
2023-05-08T05:45:14.875Z,92.11
2023-05-08T05:46:14.688Z,92.32
2023-05-08T05:47:14.658Z,93.64
2023-05-08T05:48:14.569Z,92.68
2023-05-08T05:49:14.548Z,92.68
2023-05-08T05:50:14.648Z,92.27
2023-05-08T05:51:14.518Z,92.27
2023-05-08T05:52:14.509Z,91.66
2023-05-08T05:53:14.715Z,92.27
2023-05-08T05:54:14.524Z,91.97
2023-05-08T05:55:14.689Z,92.27
2023-05-08T05:56:14.445Z,92.38
2023-05-08T05:57:14.581Z,92.27
2023-05-08T05:58:14.427Z,91.97
2023-05-08T05:59:14.406Z,91.66
2023-05-08T06:00:14.394Z,92.18
2023-05-08T06:01:14.384Z,90.95
2023-05-08T06:02:14.497Z,92.18
2023-05-08T06:03:14.437Z,92.79
2023-05-08T06:04:14.418Z,92.07
2023-05-08T06:05:14.527Z,91.66
2023-05-08T06:06:14.314Z,92.68
2023-05-08T06:07:14.314Z,92.48
2023-05-08T06:08:14.289Z,91.46
2023-05-08T06:09:14.272Z,91.56
2023-05-08T06:10:14.286Z,92.07
2023-05-08T06:11:14.262Z,91.62
2023-05-08T06:12:14.255Z,91.72
2023-05-08T06:13:14.290Z,90.91
2023-05-08T06:14:14.205Z,91.01
2023-05-08T06:15:14.417Z,90.70
2023-05-08T06:16:14.189Z,90.16
2023-05-08T06:17:14.208Z,90.25
2023-05-08T06:18:14.176Z,90.66
2023-05-08T06:19:14.143Z,90.56
2023-05-08T06:20:14.144Z,90.25
2023-05-08T06:21:14.334Z,90.01
2023-05-08T06:22:14.110Z,90.31
2023-05-08T06:23:14.090Z,89.81
2023-05-08T06:24:14.074Z,90.27
2023-05-08T06:25:14.284Z,89.20
2023-05-08T06:26:14.056Z,89.09
2023-05-08T06:27:14.029Z,89.30
2023-05-08T06:28:14.020Z,89.09
2023-05-08T06:29:14.030Z,89.20
2023-05-08T06:30:14.024Z,89.05
2023-05-08T06:31:14.019Z,88.39
2023-05-08T06:32:13.965Z,89.20
2023-05-08T06:33:13.966Z,89.15
2023-05-08T06:34:13.940Z,89.46
2023-05-08T06:35:14.173Z,89.26
2023-05-08T06:36:13.915Z,89.05
2023-05-08T06:37:13.901Z,89.36
2023-05-08T06:38:13.911Z,88.95
2023-05-08T06:39:13.886Z,88.89
2023-05-08T06:40:13.939Z,89.61
2023-05-08T06:41:15.309Z,89.20
2023-05-08T06:42:13.838Z,89.36
2023-05-08T06:43:13.847Z,89.36
2023-05-08T06:44:13.820Z,89.66
2023-05-08T06:45:13.938Z,89.46
2023-05-08T06:46:13.823Z,89.26
2023-05-08T06:47:13.764Z,88.85
2023-05-08T06:48:13.756Z,88.91
2023-05-08T06:49:13.768Z,88.81
2023-05-08T06:50:13.730Z,88.50
2023-05-08T06:51:13.706Z,88.81
2023-05-08T06:52:13.705Z,88.75
2023-05-08T06:53:13.711Z,89.46
2023-05-08T06:54:13.687Z,89.83
2023-05-08T06:55:13.873Z,89.58
2023-05-08T06:56:13.656Z,88.97
2023-05-08T06:57:13.891Z,88.36
2023-05-08T06:58:13.649Z,88.82
2023-05-08T06:59:13.611Z,87.51
2023-05-08T07:00:13.594Z,87.51
2023-05-08T07:01:13.606Z,87.57
2023-05-08T07:02:13.596Z,87.97
2023-05-08T07:03:13.627Z,87.37
2023-05-08T07:04:13.598Z,88.07
2023-05-08T07:05:13.954Z,88.38
2023-05-08T07:06:13.517Z,87.97
2023-05-08T07:07:13.516Z,87.77
2023-05-08T07:08:13.509Z,87.77
2023-05-08T07:09:13.496Z,87.77
2023-05-08T07:10:13.464Z,87.57
2023-05-08T07:11:13.465Z,87.26
2023-05-08T07:12:13.443Z,87.73
2023-05-08T07:13:13.533Z,87.22
2023-05-08T07:14:13.412Z,86.82
2023-05-08T07:15:24.789Z,87.02
2023-05-08T07:16:14.404Z,87.73
2023-05-08T07:17:13.382Z,87.52
2023-05-08T07:18:13.425Z,87.12
2023-05-08T07:19:13.365Z,87.08
2023-05-08T07:20:13.359Z,87.79
2023-05-08T07:21:13.320Z,88.09
2023-05-08T07:22:13.355Z,87.74
2023-05-08T07:23:13.301Z,86.83
2023-05-08T07:24:13.284Z,86.16
2023-05-08T07:25:13.568Z,86.68
2023-05-08T07:26:13.272Z,86.27
2023-05-08T07:27:13.259Z,86.27
2023-05-08T07:28:13.231Z,87.08
2023-05-08T07:29:13.234Z,86.77
2023-05-08T07:30:13.228Z,87.89
2023-05-08T07:31:13.233Z,87.48
2023-05-08T07:32:13.182Z,86.37
2023-05-08T07:33:13.178Z,86.57
2023-05-08T07:34:13.150Z,87.22
2023-05-08T07:35:13.494Z,87.93
2023-05-08T07:36:13.138Z,87.79
2023-05-08T07:37:13.121Z,87.69
2023-05-08T07:38:13.099Z,88.09
2023-05-08T07:39:13.092Z,87.18
2023-05-08T07:40:13.106Z,86.73
2023-05-08T07:41:13.097Z,86.02
2023-05-08T07:42:13.049Z,86.19
2023-05-08T07:43:13.032Z,85.78
2023-05-08T07:44:13.015Z,85.58
2023-05-08T07:45:13.644Z,85.64
2023-05-08T07:46:12.996Z,86.85
2023-05-08T07:47:13.050Z,87.62
2023-05-08T07:48:13.002Z,86.91
2023-05-08T07:49:12.987Z,86.41
2023-05-08T07:50:12.948Z,85.96
2023-05-08T07:51:12.921Z,86.16
2023-05-08T07:52:12.909Z,86.13
2023-05-08T07:53:12.908Z,85.22
2023-05-08T07:54:12.891Z,83.50
2023-05-08T07:55:13.056Z,83.19
2023-05-08T07:56:12.848Z,84.41
2023-05-08T07:57:12.843Z,86.22
2023-05-08T07:58:12.839Z,85.88
2023-05-08T07:59:12.822Z,85.17
2023-05-08T08:00:12.808Z,83.80
2023-05-08T08:01:12.804Z,84.00
2023-05-08T08:02:12.779Z,84.51
2023-05-08T08:03:12.842Z,84.20
2023-05-08T08:04:14.717Z,84.57
2023-05-08T08:05:13.120Z,85.99
2023-05-08T08:06:12.712Z,84.67
2023-05-08T08:07:12.713Z,83.33
2023-05-08T08:08:12.715Z,84.89
2023-05-08T08:09:12.694Z,85.60
2023-05-08T08:10:12.662Z,85.60
2023-05-08T08:11:12.669Z,85.90
2023-05-08T08:12:12.654Z,86.41
2023-05-08T08:13:12.704Z,86.71
2023-05-08T08:14:12.611Z,87.68
2023-05-08T08:15:12.857Z,86.27
2023-05-08T08:16:12.591Z,84.75
2023-05-08T08:17:12.675Z,85.86
2023-05-08T08:18:12.653Z,85.66
2023-05-08T08:19:12.553Z,85.46
2023-05-08T08:20:12.535Z,85.72
2023-05-08T08:21:12.528Z,85.02
2023-05-08T08:22:12.521Z,84.47
2023-05-08T08:23:12.548Z,84.12
2023-05-08T08:24:12.486Z,83.62
2023-05-08T08:25:12.670Z,83.52
2023-05-08T08:26:12.450Z,83.72
2023-05-08T08:27:12.467Z,82.55
2023-05-08T08:28:12.436Z,84.27
2023-05-08T08:29:12.423Z,83.66
2023-05-08T08:30:16.813Z,84.97
2023-05-08T08:31:13.451Z,84.03
2023-05-08T08:32:12.399Z,83.48
2023-05-08T08:33:12.463Z,83.54
2023-05-08T08:34:12.350Z,83.04
2023-05-08T08:35:12.732Z,82.93
2023-05-08T08:36:12.321Z,82.93
2023-05-08T08:37:12.330Z,82.93
2023-05-08T08:38:12.301Z,81.87
2023-05-08T08:39:13.854Z,82.47
2023-05-08T08:40:12.307Z,82.67
2023-05-08T08:41:12.268Z,82.98
2023-05-08T08:42:12.256Z,83.24
2023-05-08T08:43:12.240Z,84.15
2023-05-08T08:44:12.221Z,85.11
2023-05-08T08:45:12.511Z,83.60
2023-05-08T08:46:12.225Z,83.76
2023-05-08T08:47:12.194Z,81.95
2023-05-08T08:48:12.189Z,81.04
2023-05-08T08:49:12.283Z,80.84
2023-05-08T08:50:14.219Z,80.84
2023-05-08T08:51:12.140Z,81.15
2023-05-08T08:52:12.108Z,81.59
2023-05-08T08:53:12.104Z,82.65
2023-05-08T08:54:12.083Z,82.25
2023-05-08T08:55:12.205Z,82.31
2023-05-08T08:56:12.064Z,82.18
2023-05-08T08:57:12.069Z,81.98
2023-05-08T08:58:12.032Z,80.93
2023-05-08T08:59:12.045Z,81.43
2023-05-08T09:00:12.014Z,81.03
2023-05-08T09:01:12.006Z,81.33
2023-05-08T09:02:12.070Z,80.58
2023-05-08T09:03:12.016Z,79.48
2023-05-08T09:04:12.061Z,80.43
2023-05-08T09:05:12.103Z,80.02
2023-05-08T09:06:11.931Z,79.82
2023-05-08T09:07:11.920Z,80.02
2023-05-08T09:08:11.899Z,79.82
2023-05-08T09:09:11.901Z,80.26
2023-05-08T09:10:11.887Z,80.50
2023-05-08T09:11:11.863Z,81.81
2023-05-08T09:12:11.842Z,81.87
2023-05-08T09:13:11.917Z,82.38
2023-05-08T09:14:11.833Z,80.46
2023-05-08T09:15:12.190Z,80.70
2023-05-08T09:16:11.841Z,82.42
2023-05-08T09:17:11.783Z,82.78
2023-05-08T09:18:11.824Z,81.98
2023-05-08T09:19:11.764Z,81.63
2023-05-08T09:20:12.070Z,81.09
2023-05-08T09:21:11.734Z,80.39
2023-05-08T09:22:11.726Z,81.33
2023-05-08T09:23:11.704Z,81.63
2023-05-08T09:24:11.705Z,80.99
2023-05-08T09:25:11.915Z,81.90
2023-05-08T09:26:11.657Z,80.02
2023-05-08T09:27:11.654Z,81.03
2023-05-08T09:28:11.650Z,81.13
2023-05-08T09:29:11.641Z,81.09
2023-05-08T09:30:11.628Z,81.76
2023-05-08T09:31:11.670Z,79.35
2023-05-08T09:32:11.600Z,79.74
2023-05-08T09:33:11.607Z,80.39
2023-05-08T09:34:11.553Z,80.29
2023-05-08T09:35:11.737Z,80.58
2023-05-08T09:36:11.542Z,79.58
2023-05-08T09:37:11.516Z,80.65
2023-05-08T09:38:11.521Z,80.51
2023-05-08T09:39:11.491Z,79.61
2023-05-08T09:40:11.481Z,78.64
2023-05-08T09:41:11.507Z,79.61
2023-05-08T09:42:11.478Z,79.77
2023-05-08T09:43:11.463Z,80.17
2023-05-08T09:44:11.423Z,78.83
2023-05-08T09:45:11.632Z,77.89
2023-05-08T09:46:11.415Z,75.88
2023-05-08T09:47:11.413Z,75.82
2023-05-08T09:48:11.455Z,76.76
2023-05-08T09:49:11.352Z,78.56
2023-05-08T09:50:11.439Z,76.62
2023-05-08T09:51:11.330Z,75.82
2023-05-08T09:52:11.365Z,75.75
2023-05-08T09:53:11.296Z,76.39
2023-05-08T09:54:11.308Z,78.20
2023-05-08T09:55:11.289Z,77.86
2023-05-08T09:56:11.288Z,77.46
2023-05-08T09:57:11.263Z,76.92
2023-05-08T09:58:11.251Z,77.09
2023-05-08T09:59:11.267Z,75.31
2023-05-08T10:00:11.630Z,75.62
2023-05-08T10:01:11.254Z,76.12
2023-05-08T10:02:11.210Z,78.53
2023-05-08T10:03:11.216Z,75.71
2023-05-08T10:04:11.236Z,78.16
2023-05-08T10:05:11.230Z,77.12
2023-05-08T10:06:11.150Z,78.12
2023-05-08T10:07:11.126Z,77.59
2023-05-08T10:08:11.126Z,76.04
2023-05-08T10:09:11.105Z,74.54
2023-05-08T10:10:11.284Z,75.54
2023-05-08T10:11:11.075Z,76.21
2023-05-08T10:12:11.054Z,77.87
2023-05-08T10:13:11.095Z,76.47
2023-05-08T10:14:11.030Z,74.17
2023-05-08T10:15:11.024Z,74.87
2023-05-08T10:16:11.003Z,73.97
2023-05-08T10:17:11.065Z,74.40
2023-05-08T10:18:11.087Z,74.10
2023-05-08T10:19:10.962Z,73.80
2023-05-08T10:20:11.084Z,73.80
2023-05-08T10:21:10.996Z,74.44
2023-05-08T10:22:10.966Z,74.88
2023-05-08T10:23:10.910Z,76.28
2023-05-08T10:24:10.897Z,76.89
2023-05-08T10:25:11.158Z,76.34
2023-05-08T10:26:10.885Z,77.75
2023-05-08T10:27:10.862Z,76.34
2023-05-08T10:28:10.871Z,76.34
2023-05-08T10:29:10.868Z,75.95
2023-05-08T10:30:11.113Z,76.25
2023-05-08T10:31:18.906Z,75.84
2023-05-08T10:32:10.797Z,75.14
2023-05-08T10:33:10.808Z,75.14
2023-05-08T10:34:10.815Z,75.45
2023-05-08T10:35:10.827Z,76.65
2023-05-08T10:36:10.747Z,77.75
2023-05-08T10:37:10.745Z,77.89
2023-05-08T10:38:10.754Z,78.19
2023-05-08T10:39:10.732Z,78.05
2023-05-08T10:40:10.740Z,78.45
2023-05-08T10:41:10.663Z,77.91
2023-05-08T10:42:10.668Z,76.57
2023-05-08T10:43:10.641Z,75.17
2023-05-08T10:44:10.685Z,75.41
2023-05-08T10:45:10.615Z,75.95
2023-05-08T10:46:10.671Z,77.45
2023-05-08T10:47:10.589Z,76.75
2023-05-08T10:48:10.634Z,77.01
2023-05-08T10:49:10.576Z,76.21
2023-05-08T10:50:10.709Z,75.27
2023-05-08T10:51:10.534Z,74.07
2023-05-08T10:52:10.536Z,74.27
2023-05-08T10:53:10.516Z,75.57
2023-05-08T10:54:10.493Z,75.47
2023-05-08T10:55:10.490Z,75.51
2023-05-08T10:56:10.466Z,76.34
2023-05-08T10:57:10.493Z,76.54
2023-05-08T10:58:10.491Z,77.25
2023-05-08T10:59:10.447Z,77.35
2023-05-08T11:00:10.508Z,76.31
2023-05-08T11:01:10.451Z,75.81
2023-05-08T11:02:10.524Z,76.47
2023-05-08T11:03:23.620Z,75.17
2023-05-08T11:04:11.441Z,75.77
2023-05-08T11:05:10.364Z,75.67
2023-05-08T11:06:10.340Z,74.47
2023-05-08T11:07:10.337Z,76.57
2023-05-08T11:08:10.331Z,75.84
2023-05-08T11:09:10.290Z,75.20
2023-05-08T11:10:10.366Z,73.39
2023-05-08T11:11:10.276Z,73.53
2023-05-08T11:12:10.277Z,74.33
2023-05-08T11:13:10.302Z,73.76
2023-05-08T11:14:10.222Z,73.16
2023-05-08T11:15:10.231Z,72.76
2023-05-08T11:16:10.307Z,74.76
2023-05-08T11:17:10.204Z,74.96
2023-05-08T11:18:10.219Z,74.06
2023-05-08T11:19:10.160Z,75.52
2023-05-08T11:20:10.179Z,73.39
2023-05-08T11:21:10.155Z,72.39
2023-05-08T11:22:10.125Z,72.49
2023-05-08T11:23:10.105Z,73.43
2023-05-08T11:24:10.096Z,73.33
2023-05-08T11:25:10.082Z,72.23
2023-05-08T11:26:10.082Z,73.19
2023-05-08T11:27:10.054Z,73.03
2023-05-08T11:28:10.045Z,73.03
2023-05-08T11:29:10.044Z,73.63
2023-05-08T11:30:10.110Z,74.63
2023-05-08T11:31:10.073Z,74.43
2023-05-08T11:32:10.037Z,74.53
2023-05-08T11:33:09.972Z,73.26
2023-05-08T11:34:09.982Z,74.87
2023-05-08T11:35:09.983Z,75.00
2023-05-08T11:36:09.942Z,74.70
2023-05-08T11:37:09.931Z,74.10
2023-05-08T11:38:09.911Z,75.60
2023-05-08T11:39:09.910Z,75.37
2023-05-08T11:40:09.899Z,73.56
2023-05-08T11:41:09.901Z,73.86
2023-05-08T11:42:09.857Z,73.86
2023-05-08T11:43:09.838Z,73.70
2023-05-08T11:44:09.915Z,74.73
2023-05-08T11:45:09.823Z,75.47
2023-05-08T11:46:09.806Z,75.77
2023-05-08T11:47:09.817Z,74.93
2023-05-08T11:48:09.873Z,75.23
2023-05-08T11:49:09.774Z,74.73
2023-05-08T11:50:09.805Z,75.27
2023-05-08T11:51:09.747Z,75.37
2023-05-08T11:52:09.748Z,75.63
2023-05-08T11:53:09.737Z,75.43
2023-05-08T11:54:09.718Z,75.34
2023-05-08T11:55:09.688Z,75.57
2023-05-08T11:56:09.680Z,76.17
2023-05-08T11:57:09.658Z,76.11
2023-05-08T11:58:09.660Z,76.31
2023-05-08T11:59:09.657Z,76.11
2023-05-08T12:00:09.640Z,77.11
2023-05-08T12:01:09.674Z,77.37
2023-05-08T12:02:09.974Z,76.87
2023-05-08T12:03:09.720Z,78.18
2023-05-08T12:04:09.735Z,77.14
2023-05-08T12:05:09.666Z,77.24
2023-05-08T12:06:09.543Z,76.87
2023-05-08T12:07:09.525Z,78.18
2023-05-08T12:08:09.530Z,77.17
2023-05-08T12:09:09.506Z,78.48
2023-05-08T12:10:09.496Z,77.91
2023-05-08T12:11:09.477Z,78.02
2023-05-08T12:12:09.478Z,78.52
2023-05-08T12:13:09.522Z,78.61
2023-05-08T12:14:09.470Z,78.61
2023-05-08T12:15:09.423Z,78.48
2023-05-08T12:16:09.415Z,78.18
2023-05-08T12:17:09.471Z,78.94
2023-05-08T12:18:09.450Z,77.84
2023-05-08T12:19:09.374Z,78.78
2023-05-08T12:20:09.368Z,79.52
2023-05-08T12:21:09.348Z,78.72
2023-05-08T12:22:09.362Z,78.61
2023-05-08T12:23:09.328Z,77.95
2023-05-08T12:24:09.313Z,78.35
2023-05-08T12:25:09.286Z,79.12
2023-05-08T12:26:09.316Z,79.42
2023-05-08T12:27:09.293Z,78.42
2023-05-08T12:28:09.254Z,78.42
2023-05-08T12:29:09.239Z,79.32
2023-05-08T12:30:09.250Z,79.12
2023-05-08T12:31:09.257Z,78.72
2023-05-08T12:32:09.203Z,78.66
2023-05-08T12:33:09.244Z,79.75
2023-05-08T12:34:09.198Z,79.46
2023-05-08T12:35:09.167Z,80.36
2023-05-08T12:36:09.170Z,80.16
2023-05-08T12:37:09.136Z,79.66
2023-05-08T12:38:09.124Z,80.16
2023-05-08T12:39:09.121Z,80.06
2023-05-08T12:40:09.088Z,80.52
2023-05-08T12:41:09.091Z,78.52
2023-05-08T12:42:09.074Z,78.22
2023-05-08T12:43:09.051Z,78.25
2023-05-08T12:44:09.039Z,78.15
2023-05-08T12:45:09.029Z,78.25
2023-05-08T12:46:09.095Z,78.66
2023-05-08T12:47:08.992Z,78.85
2023-05-08T12:48:09.002Z,78.31
2023-05-08T12:49:08.967Z,78.66
2023-05-08T12:50:08.976Z,78.81
2023-05-08T12:51:08.940Z,78.31
2023-05-08T12:52:08.938Z,78.72
2023-05-08T12:53:08.912Z,78.72
2023-05-08T12:54:08.933Z,77.17
2023-05-08T12:55:08.904Z,77.28
2023-05-08T12:56:08.888Z,77.21
2023-05-08T12:57:08.868Z,77.41
2023-05-08T12:58:11.951Z,77.51
2023-05-08T12:59:09.855Z,78.22
2023-05-08T13:00:08.839Z,78.42
2023-05-08T13:01:08.812Z,77.31
2023-05-08T13:02:08.825Z,77.81
2023-05-08T13:03:08.875Z,78.81
2023-05-08T13:04:09.051Z,78.72
2023-05-08T13:05:08.792Z,78.92
2023-05-08T13:06:08.750Z,77.78
2023-05-08T13:07:08.731Z,77.87
2023-05-08T13:08:08.728Z,78.24
2023-05-08T13:09:08.727Z,76.70
2023-05-08T13:10:08.694Z,76.97
2023-05-08T13:11:08.868Z,75.87
2023-05-08T13:12:08.668Z,76.87
2023-05-08T13:13:08.683Z,75.37
2023-05-08T13:14:08.673Z,75.16
2023-05-08T13:15:08.645Z,76.26
2023-05-08T13:16:08.726Z,75.60
2023-05-08T13:17:08.599Z,75.70
2023-05-08T13:18:08.619Z,76.46
2023-05-08T13:19:08.582Z,75.80
2023-05-08T13:20:08.555Z,75.96
2023-05-08T13:21:08.798Z,75.46
2023-05-08T13:22:08.563Z,76.46
2023-05-08T13:23:08.546Z,75.56
2023-05-08T13:24:08.504Z,75.33
2023-05-08T13:25:08.499Z,76.53
2023-05-08T13:26:08.517Z,74.59
2023-05-08T13:27:08.538Z,74.29
2023-05-08T13:28:08.472Z,74.59
2023-05-08T13:29:08.436Z,73.93
2023-05-08T13:30:08.474Z,74.46
2023-05-08T13:31:08.415Z,76.10
2023-05-08T13:32:08.510Z,76.04
2023-05-08T13:33:08.433Z,77.17
2023-05-08T13:34:08.378Z,77.37
2023-05-08T13:35:08.366Z,77.58
2023-05-08T13:36:08.346Z,78.48
2023-05-08T13:37:08.416Z,76.98
2023-05-08T13:38:08.343Z,77.78
2023-05-08T13:39:08.313Z,76.57
2023-05-08T13:40:08.316Z,75.31
2023-05-08T13:41:08.286Z,77.41
2023-05-08T13:42:08.280Z,77.11
2023-05-08T13:43:08.260Z,77.51
2023-05-08T13:44:08.235Z,76.91
2023-05-08T13:45:08.228Z,75.91
2023-05-08T13:46:08.265Z,75.97
2023-05-08T13:47:08.217Z,75.27
2023-05-08T13:48:08.256Z,76.84
2023-05-08T13:49:08.179Z,77.28
2023-05-08T13:50:08.154Z,77.87
2023-05-08T13:51:08.167Z,77.78
2023-05-08T13:52:08.147Z,76.37
2023-05-08T13:53:08.136Z,77.28
2023-05-08T13:54:08.127Z,77.08
2023-05-08T13:55:08.100Z,77.58
2023-05-08T13:56:08.095Z,77.87
2023-05-08T13:57:08.067Z,78.38
2023-05-08T13:58:08.054Z,77.58
2023-05-08T13:59:08.047Z,77.48
2023-05-08T14:00:08.084Z,77.87
2023-05-08T14:01:25.028Z,78.18
2023-05-08T14:02:09.123Z,77.98
2023-05-08T14:03:08.018Z,78.31
2023-05-08T14:04:08.142Z,79.12
2023-05-08T14:05:08.040Z,79.72
2023-05-08T14:06:07.964Z,79.55
2023-05-08T14:07:07.938Z,79.46
2023-05-08T14:08:07.933Z,79.99
2023-05-08T14:09:07.901Z,80.86
2023-05-08T14:10:07.911Z,79.16
2023-05-08T14:11:07.898Z,79.05
2023-05-08T14:12:07.883Z,79.46
2023-05-08T14:13:07.894Z,79.55
2023-05-08T14:14:07.840Z,80.06
2023-05-08T14:15:07.836Z,79.86
2023-05-08T14:16:07.859Z,79.46
2023-05-08T14:17:07.808Z,79.36
2023-05-08T14:18:07.910Z,79.16
2023-05-08T14:19:07.786Z,80.06
2023-05-08T14:20:08.716Z,79.96
2023-05-08T14:21:07.755Z,79.86
2023-05-08T14:22:07.742Z,79.55
2023-05-08T14:23:07.737Z,79.16
2023-05-08T14:24:07.719Z,80.16
2023-05-08T14:25:07.697Z,79.55
2023-05-08T14:26:07.690Z,79.55
2023-05-08T14:27:07.694Z,79.75
2023-05-08T14:28:07.673Z,79.55
2023-05-08T14:29:07.649Z,80.16
2023-05-08T14:30:07.658Z,78.75
2023-05-08T14:31:07.718Z,79.25
2023-05-08T14:32:07.600Z,79.12
2023-05-08T14:33:07.656Z,78.52
2023-05-08T14:34:07.598Z,78.22
2023-05-08T14:35:07.556Z,77.91
2023-05-08T14:36:07.548Z,77.11
2023-05-08T14:37:07.554Z,77.72
2023-05-08T14:38:07.534Z,78.22
2023-05-08T14:39:07.505Z,77.78
2023-05-08T14:40:07.518Z,77.87
2023-05-08T14:41:07.479Z,77.17
2023-05-08T14:43:07.463Z,76.98
2023-05-08T14:44:07.449Z,77.08
2023-05-08T14:45:07.493Z,76.98
2023-05-08T14:46:07.591Z,77.72
2023-05-08T14:47:07.407Z,77.67
2023-05-08T14:48:07.516Z,77.37
2023-05-08T14:49:07.372Z,77.37
2023-05-08T14:50:07.365Z,77.17
2023-05-08T14:51:07.349Z,76.98
2023-05-08T14:52:07.441Z,77.48
2023-05-08T14:53:07.369Z,77.37
2023-05-08T14:54:07.442Z,77.08
2023-05-08T14:55:07.450Z,77.37
2023-05-08T14:56:07.498Z,77.37
2023-05-08T14:57:07.283Z,77.48
2023-05-08T14:58:07.260Z,78.22
2023-05-08T14:59:07.235Z,77.78
2023-05-08T15:00:07.259Z,77.61
2023-05-08T15:01:07.223Z,78.55
2023-05-08T15:02:07.267Z,79.05
2023-05-08T15:03:07.228Z,79.12
2023-05-08T15:04:07.182Z,79.02
2023-05-08T15:05:10.955Z,78.81
2023-05-08T15:06:08.162Z,79.52
2023-05-08T15:07:07.124Z,78.88
2023-05-08T15:08:07.142Z,78.81
2023-05-08T15:09:07.095Z,78.98
2023-05-08T15:10:07.100Z,79.28
2023-05-08T15:11:07.105Z,78.68
2023-05-08T15:12:07.062Z,79.08
2023-05-08T15:13:07.079Z,79.28
2023-05-08T15:14:07.050Z,78.92
2023-05-08T15:15:07.032Z,78.92
2023-05-08T15:16:07.045Z,79.52
2023-05-08T15:17:07.002Z,80.02
2023-05-08T15:18:07.072Z,79.42
2023-05-08T15:19:06.964Z,78.81
2023-05-08T15:20:06.975Z,78.52
2023-05-08T15:21:06.945Z,78.05
2023-05-08T15:22:06.926Z,78.92
2023-05-08T15:23:06.926Z,78.02
2023-05-08T15:24:06.904Z,77.58
2023-05-08T15:25:06.893Z,77.37
2023-05-08T15:26:06.872Z,77.98
2023-05-08T15:27:06.857Z,76.80
2023-05-08T15:28:06.851Z,75.16
2023-05-08T15:29:06.877Z,74.73
2023-05-08T15:30:06.835Z,73.19
2023-05-08T15:31:06.829Z,72.02
2023-05-08T15:32:06.881Z,72.22
2023-05-08T15:33:06.881Z,72.13
2023-05-08T15:34:06.782Z,71.89
2023-05-08T15:35:06.765Z,72.59
2023-05-08T15:36:06.752Z,72.03
2023-05-08T15:37:06.728Z,71.62
2023-05-08T15:38:06.719Z,71.26
2023-05-08T15:39:06.714Z,70.23
2023-05-08T15:40:06.694Z,70.29
2023-05-08T15:41:06.680Z,69.36
2023-05-08T15:42:06.673Z,67.93
2023-05-08T15:43:06.661Z,67.70
2023-05-08T15:44:06.666Z,67.17
2023-05-08T15:45:06.644Z,67.33
2023-05-08T15:46:06.649Z,66.27
2023-05-08T15:47:06.593Z,67.90
2023-05-08T15:48:06.692Z,68.23
2023-05-08T15:49:06.621Z,68.43
2023-05-08T15:50:06.565Z,69.29
2023-05-08T15:51:06.560Z,70.62
2023-05-08T15:52:06.541Z,70.59
2023-05-08T15:53:06.540Z,70.26
2023-05-08T15:54:06.521Z,68.63
2023-05-08T15:55:06.507Z,68.13
2023-05-08T15:56:06.502Z,68.76
2023-05-08T15:57:06.469Z,69.96
2023-05-08T15:58:06.474Z,69.56
2023-05-08T15:59:06.489Z,68.56
2023-05-08T16:00:06.439Z,68.63
2023-05-08T16:01:06.444Z,69.36
2023-05-08T16:02:06.470Z,69.06
2023-05-08T16:03:06.499Z,68.96
2023-05-08T16:04:06.387Z,69.36
2023-05-08T16:05:06.368Z,69.26
2023-05-08T16:06:06.372Z,69.49
2023-05-08T16:07:06.343Z,70.72
2023-05-08T16:08:06.321Z,70.89
2023-05-08T16:09:06.308Z,71.03
2023-05-08T16:10:07.392Z,71.33
2023-05-08T16:11:06.280Z,70.69
2023-05-08T16:12:06.286Z,71.03
2023-05-08T16:13:06.272Z,71.86
2023-05-08T16:14:06.257Z,72.89
2023-05-08T16:15:06.244Z,73.03
2023-05-08T16:16:06.293Z,73.09
2023-05-08T16:17:07.426Z,72.56
2023-05-08T16:18:06.303Z,73.09
2023-05-08T16:19:06.183Z,72.49
2023-05-08T16:20:06.177Z,73.83
2023-05-08T16:21:06.260Z,73.83
2023-05-08T16:22:06.155Z,72.99
2023-05-08T16:23:06.138Z,72.69
2023-05-08T16:24:06.125Z,73.29
2023-05-08T16:25:06.100Z,74.33
2023-05-08T16:26:06.106Z,75.56
2023-05-08T16:27:06.080Z,77.00
2023-05-08T16:28:06.066Z,77.80
2023-05-08T16:29:06.052Z,77.60
2023-05-08T16:30:06.047Z,77.40
2023-05-08T16:31:06.151Z,76.40
2023-05-08T16:32:13.063Z,76.06
2023-05-08T16:33:06.038Z,75.76
2023-05-08T16:34:05.989Z,75.13
2023-05-08T16:35:06.004Z,74.59
2023-05-08T16:36:05.967Z,74.69
2023-05-08T16:37:05.956Z,74.05
2023-05-08T16:38:05.931Z,73.56
2023-05-08T16:39:05.921Z,73.16
2023-05-08T16:40:05.910Z,73.33
2023-05-08T16:41:05.892Z,74.03
2023-05-08T16:42:05.882Z,74.26
2023-05-08T16:43:05.866Z,74.70
2023-05-08T16:44:05.842Z,75.00
2023-05-08T16:45:05.855Z,74.80
2023-05-08T16:46:05.856Z,74.96
2023-05-08T16:47:05.843Z,74.46
2023-05-08T16:48:05.831Z,73.83
2023-05-08T16:49:05.789Z,72.76
2023-05-08T16:50:05.796Z,73.30
2023-05-08T16:51:05.757Z,72.86
2023-05-08T16:52:05.744Z,71.66
2023-05-08T16:53:05.734Z,72.66
2023-05-08T16:54:05.754Z,72.46
2023-05-08T16:55:05.708Z,70.92
2023-05-08T16:56:05.688Z,71.12
2023-05-08T16:57:05.676Z,70.96
2023-05-08T16:58:05.655Z,69.23
2023-05-08T16:59:05.662Z,69.26
2023-05-08T17:00:05.641Z,69.86
2023-05-08T17:01:05.676Z,69.26
2023-05-08T17:02:05.654Z,68.76
2023-05-08T17:03:05.683Z,68.46
2023-05-08T17:04:05.602Z,69.09
2023-05-08T17:05:05.573Z,69.29
2023-05-08T17:06:05.551Z,67.86
2023-05-08T17:07:05.539Z,66.46
2023-05-08T17:08:05.545Z,64.73
2023-05-08T17:09:05.545Z,64.53